NCAR-RAP Real-Time Weather Data

Output produced by METARs form (08 May 2021  02:15 UTC)
found at http://weather.rap.ucar.edu/surface/
 
KGRI 080153Z AUTO 10011G21KT 10SM CLR 17/03 A2994 RMK AO2 SLP137 T01720033
KGRI 080053Z 09016G20KT 10SM CLR 18/04 A2994 RMK AO2 SLP139 T01830044
KGRI 072353Z 10015KT 10SM CLR 20/05 A2995 RMK AO2 SLP141 T02000050 10211 20172 56023
KGRI 072253Z 10015G25KT 10SM CLR 21/06 A2996 RMK AO2 SLP146 T02060056
KGRI 072153Z 11014G23KT 10SM CLR 21/06 A2999 RMK AO2 SLP154 T02110056
KGRI 072053Z 12011KT 10SM CLR 21/06 A3002 RMK AO2 SLP166 T02110056 56024
KGRI 071953Z 09015G23KT 10SM BKN060 19/05 A3004 RMK AO2 SLP174 T01940050
KGRI 071853Z 08015G23KT 10SM BKN060 19/04 A3006 RMK AO2 SLP179 T01890044
KGRI 071753Z 08013G20KT 10SM OVC055 17/04 A3009 RMK AO2 SLP191 T01720044 10178 20094 58013
KGRI 071653Z 07007KT 10SM OVC060 17/06 A3012 RMK AO2 SLP199 T01670056
KGRI 071553Z VRB04KT 10SM OVC070 18/05 A3012 RMK AO2 SLP202 T01780050
KGRI 071453Z 28004KT 10SM OVC070 17/04 A3014 RMK AO2 SLP205 T01670044 58001
KGRI 071353Z 26004KT 10SM BKN070 14/04 A3014 RMK AO2 SLP208 T01440044
KGRI 071253Z 00000KT 10SM FEW070 12/04 A3015 RMK AO2 SLP209 T01220044
KGRI 071153Z 26003KT 10SM FEW070 09/03 A3014 RMK AO2 SLP207 T00940033 10122 20072 53002